sensor_id;sensor_type;location;lat;lon;timestamp;P1;durP1;ratioP1;P2;durP2;ratioP2
39032;SDS011;24794;51.982;5.878;2024-03-17T00:00:10;11.13;;;5.80;;
39032;SDS011;24794;51.982;5.878;2024-03-17T00:01:14;12.57;;;4.90;;
39032;SDS011;24794;51.982;5.878;2024-03-17T00:02:15;9.35;;;4.72;;
39032;SDS011;24794;51.982;5.878;2024-03-17T00:03:15;8.43;;;4.65;;
39032;SDS011;24794;51.982;5.878;2024-03-17T00:04:16;10.02;;;4.75;;
39032;SDS011;24794;51.982;5.878;2024-03-17T00:05:16;10.65;;;5.03;;
39032;SDS011;24794;51.982;5.878;2024-03-17T00:06:18;7.45;;;4.70;;
39032;SDS011;24794;51.982;5.878;2024-03-17T00:07:19;8.80;;;4.97;;
39032;SDS011;24794;51.982;5.878;2024-03-17T00:08:19;12.30;;;4.93;;
39032;SDS011;24794;51.982;5.878;2024-03-17T00:09:21;11.30;;;5.15;;
39032;SDS011;24794;51.982;5.878;2024-03-17T00:10:21;9.82;;;5.03;;
39032;SDS011;24794;51.982;5.878;2024-03-17T00:11:22;9.25;;;5.03;;
39032;SDS011;24794;51.982;5.878;2024-03-17T00:12:23;10.20;;;5.00;;
39032;SDS011;24794;51.982;5.878;2024-03-17T00:13:23;10.05;;;4.68;;
39032;SDS011;24794;51.982;5.878;2024-03-17T00:14:25;8.75;;;5.05;;
39032;SDS011;24794;51.982;5.878;2024-03-17T00:15:28;10.85;;;4.78;;
39032;SDS011;24794;51.982;5.878;2024-03-17T00:16:28;7.22;;;4.40;;
39032;SDS011;24794;51.982;5.878;2024-03-17T00:17:29;9.35;;;4.85;;
39032;SDS011;24794;51.982;5.878;2024-03-17T00:18:29;9.50;;;4.90;;
39032;SDS011;24794;51.982;5.878;2024-03-17T00:19:30;10.82;;;4.97;;
39032;SDS011;24794;51.982;5.878;2024-03-17T00:20:31;10.63;;;4.53;;
39032;SDS011;24794;51.982;5.878;2024-03-17T00:21:32;10.63;;;4.90;;
39032;SDS011;24794;51.982;5.878;2024-03-17T00:22:32;9.55;;;4.95;;
39032;SDS011;24794;51.982;5.878;2024-03-17T00:23:37;11.23;;;4.75;;
39032;SDS011;24794;51.982;5.878;2024-03-17T00:24:37;12.82;;;5.40;;
39032;SDS011;24794;51.982;5.878;2024-03-17T00:25:38;9.45;;;4.60;;
39032;SDS011;24794;51.982;5.878;2024-03-17T00:26:39;12.88;;;4.63;;
39032;SDS011;24794;51.982;5.878;2024-03-17T00:27:40;10.65;;;4.60;;
39032;SDS011;24794;51.982;5.878;2024-03-17T00:28:43;8.93;;;4.90;;
39032;SDS011;24794;51.982;5.878;2024-03-17T00:29:46;8.40;;;4.35;;
39032;SDS011;24794;51.982;5.878;2024-03-17T00:30:47;11.57;;;5.05;;
39032;SDS011;24794;51.982;5.878;2024-03-17T00:31:47;11.00;;;5.22;;
39032;SDS011;24794;51.982;5.878;2024-03-17T00:32:48;10.88;;;4.88;;
39032;SDS011;24794;51.982;5.878;2024-03-17T00:33:51;8.63;;;4.75;;
39032;SDS011;24794;51.982;5.878;2024-03-17T00:34:52;10.25;;;4.50;;
39032;SDS011;24794;51.982;5.878;2024-03-17T00:35:53;11.73;;;5.07;;
39032;SDS011;24794;51.982;5.878;2024-03-17T00:36:53;8.60;;;4.70;;
39032;SDS011;24794;51.982;5.878;2024-03-17T00:37:54;7.57;;;4.55;;
39032;SDS011;24794;51.982;5.878;2024-03-17T00:38:55;14.50;;;4.85;;
39032;SDS011;24794;51.982;5.878;2024-03-17T00:39:55;10.48;;;5.32;;
39032;SDS011;24794;51.982;5.878;2024-03-17T00:40:56;8.60;;;4.63;;
39032;SDS011;24794;51.982;5.878;2024-03-17T00:41:57;10.40;;;4.85;;
39032;SDS011;24794;51.982;5.878;2024-03-17T00:42:57;8.23;;;4.57;;
39032;SDS011;24794;51.982;5.878;2024-03-17T00:43:58;10.50;;;4.63;;
39032;SDS011;24794;51.982;5.878;2024-03-17T00:45:00;8.52;;;4.80;;
39032;SDS011;24794;51.982;5.878;2024-03-17T00:46:01;8.95;;;4.93;;
39032;SDS011;24794;51.982;5.878;2024-03-17T00:47:02;10.32;;;5.00;;
39032;SDS011;24794;51.982;5.878;2024-03-17T00:48:03;8.43;;;4.47;;
39032;SDS011;24794;51.982;5.878;2024-03-17T00:49:06;10.68;;;5.05;;
39032;SDS011;24794;51.982;5.878;2024-03-17T00:50:06;9.55;;;4.53;;
39032;SDS011;24794;51.982;5.878;2024-03-17T00:51:08;8.77;;;4.88;;
39032;SDS011;24794;51.982;5.878;2024-03-17T00:52:09;9.57;;;4.78;;
39032;SDS011;24794;51.982;5.878;2024-03-17T00:53:09;11.93;;;5.13;;
39032;SDS011;24794;51.982;5.878;2024-03-17T00:54:10;9.63;;;4.55;;
39032;SDS011;24794;51.982;5.878;2024-03-17T00:55:11;11.30;;;5.10;;
39032;SDS011;24794;51.982;5.878;2024-03-17T00:56:11;7.43;;;4.72;;
39032;SDS011;24794;51.982;5.878;2024-03-17T00:57:12;12.15;;;5.20;;
39032;SDS011;24794;51.982;5.878;2024-03-17T00:58:12;13.73;;;4.95;;
39032;SDS011;24794;51.982;5.878;2024-03-17T00:59:13;10.65;;;4.93;;
39032;SDS011;24794;51.982;5.878;2024-03-17T01:00:13;8.15;;;4.78;;
39032;SDS011;24794;51.982;5.878;2024-03-17T01:01:15;9.13;;;4.32;;
39032;SDS011;24794;51.982;5.878;2024-03-17T01:02:16;10.95;;;5.03;;
39032;SDS011;24794;51.982;5.878;2024-03-17T01:03:17;10.45;;;4.95;;
39032;SDS011;24794;51.982;5.878;2024-03-17T01:04:18;8.60;;;4.55;;
39032;SDS011;24794;51.982;5.878;2024-03-17T01:05:18;7.82;;;4.57;;
39032;SDS011;24794;51.982;5.878;2024-03-17T01:06:19;8.32;;;4.78;;
39032;SDS011;24794;51.982;5.878;2024-03-17T01:07:20;14.50;;;4.82;;
39032;SDS011;24794;51.982;5.878;2024-03-17T01:08:20;8.38;;;4.28;;
39032;SDS011;24794;51.982;5.878;2024-03-17T01:09:21;11.00;;;4.68;;
39032;SDS011;24794;51.982;5.878;2024-03-17T01:10:22;12.70;;;5.25;;
39032;SDS011;24794;51.982;5.878;2024-03-17T01:11:22;10.13;;;4.68;;
39032;SDS011;24794;51.982;5.878;2024-03-17T01:12:25;7.75;;;4.53;;
39032;SDS011;24794;51.982;5.878;2024-03-17T01:13:26;9.30;;;4.70;;
39032;SDS011;24794;51.982;5.878;2024-03-17T01:14:27;8.57;;;4.40;;
39032;SDS011;24794;51.982;5.878;2024-03-17T01:15:28;8.23;;;4.45;;
39032;SDS011;24794;51.982;5.878;2024-03-17T01:16:28;8.77;;;4.72;;
39032;SDS011;24794;51.982;5.878;2024-03-17T01:17:29;8.88;;;4.63;;
39032;SDS011;24794;51.982;5.878;2024-03-17T01:18:29;12.10;;;4.70;;
39032;SDS011;24794;51.982;5.878;2024-03-17T01:19:30;10.75;;;4.50;;
39032;SDS011;24794;51.982;5.878;2024-03-17T01:20:31;11.35;;;4.82;;
39032;SDS011;24794;51.982;5.878;2024-03-17T01:21:33;11.52;;;4.50;;
39032;SDS011;24794;51.982;5.878;2024-03-17T01:22:33;8.77;;;4.25;;
39032;SDS011;24794;51.982;5.878;2024-03-17T01:23:34;9.50;;;4.40;;
39032;SDS011;24794;51.982;5.878;2024-03-17T01:24:34;9.73;;;5.05;;
39032;SDS011;24794;51.982;5.878;2024-03-17T01:25:35;11.15;;;4.68;;
39032;SDS011;24794;51.982;5.878;2024-03-17T01:26:37;13.82;;;5.10;;
39032;SDS011;24794;51.982;5.878;2024-03-17T01:27:37;9.68;;;4.80;;
39032;SDS011;24794;51.982;5.878;2024-03-17T01:28:38;8.32;;;4.40;;
39032;SDS011;24794;51.982;5.878;2024-03-17T01:29:38;10.05;;;4.72;;
39032;SDS011;24794;51.982;5.878;2024-03-17T01:30:39;8.65;;;4.38;;
39032;SDS011;24794;51.982;5.878;2024-03-17T01:31:40;9.85;;;4.60;;
39032;SDS011;24794;51.982;5.878;2024-03-17T01:32:41;9.73;;;4.47;;
39032;SDS011;24794;51.982;5.878;2024-03-17T01:33:41;9.55;;;4.50;;
39032;SDS011;24794;51.982;5.878;2024-03-17T01:34:42;7.00;;;4.10;;
39032;SDS011;24794;51.982;5.878;2024-03-17T01:35:43;13.65;;;4.35;;
39032;SDS011;24794;51.982;5.878;2024-03-17T01:36:43;10.05;;;4.07;;
39032;SDS011;24794;51.982;5.878;2024-03-17T01:37:44;6.72;;;4.10;;
39032;SDS011;24794;51.982;5.878;2024-03-17T01:38:44;8.38;;;4.53;;
39032;SDS011;24794;51.982;5.878;2024-03-17T01:39:45;9.30;;;4.40;;
39032;SDS011;24794;51.982;5.878;2024-03-17T01:40:45;7.35;;;4.40;;
39032;SDS011;24794;51.982;5.878;2024-03-17T01:41:47;9.35;;;4.10;;
39032;SDS011;24794;51.982;5.878;2024-03-17T01:42:47;11.60;;;4.38;;
39032;SDS011;24794;51.982;5.878;2024-03-17T01:43:48;9.70;;;4.70;;
39032;SDS011;24794;51.982;5.878;2024-03-17T01:44:48;9.15;;;5.10;;
39032;SDS011;24794;51.982;5.878;2024-03-17T01:45:50;9.82;;;4.65;;
39032;SDS011;24794;51.982;5.878;2024-03-17T01:46:51;10.23;;;5.20;;
39032;SDS011;24794;51.982;5.878;2024-03-17T01:47:53;10.13;;;4.45;;
39032;SDS011;24794;51.982;5.878;2024-03-17T01:48:57;11.88;;;4.82;;
39032;SDS011;24794;51.982;5.878;2024-03-17T01:49:58;10.60;;;4.82;;
39032;SDS011;24794;51.982;5.878;2024-03-17T01:50:59;9.70;;;4.72;;
39032;SDS011;24794;51.982;5.878;2024-03-17T01:51:59;8.38;;;4.70;;
39032;SDS011;24794;51.982;5.878;2024-03-17T01:53:01;13.25;;;4.85;;
39032;SDS011;24794;51.982;5.878;2024-03-17T01:54:05;10.30;;;4.43;;
39032;SDS011;24794;51.982;5.878;2024-03-17T01:55:05;10.00;;;4.50;;
39032;SDS011;24794;51.982;5.878;2024-03-17T01:56:07;10.43;;;4.78;;
39032;SDS011;24794;51.982;5.878;2024-03-17T01:57:09;10.05;;;4.90;;
39032;SDS011;24794;51.982;5.878;2024-03-17T01:58:11;8.70;;;5.03;;
39032;SDS011;24794;51.982;5.878;2024-03-17T01:59:11;8.05;;;4.88;;
39032;SDS011;24794;51.982;5.878;2024-03-17T02:00:14;12.77;;;5.00;;
39032;SDS011;24794;51.982;5.878;2024-03-17T02:01:14;9.75;;;4.75;;
39032;SDS011;24794;51.982;5.878;2024-03-17T02:02:16;9.93;;;4.80;;
39032;SDS011;24794;51.982;5.878;2024-03-17T02:03:16;8.75;;;4.07;;
39032;SDS011;24794;51.982;5.878;2024-03-17T02:04:17;8.48;;;5.05;;
39032;SDS011;24794;51.982;5.878;2024-03-17T02:05:18;9.57;;;4.90;;
39032;SDS011;24794;51.982;5.878;2024-03-17T02:06:18;12.40;;;5.28;;
39032;SDS011;24794;51.982;5.878;2024-03-17T02:07:19;9.80;;;5.22;;
39032;SDS011;24794;51.982;5.878;2024-03-17T02:08:20;12.25;;;5.00;;
39032;SDS011;24794;51.982;5.878;2024-03-17T02:09:22;8.98;;;4.75;;
39032;SDS011;24794;51.982;5.878;2024-03-17T02:10:23;10.80;;;4.82;;
39032;SDS011;24794;51.982;5.878;2024-03-17T02:11:30;10.95;;;5.22;;
39032;SDS011;24794;51.982;5.878;2024-03-17T02:12:32;13.25;;;5.10;;
39032;SDS011;24794;51.982;5.878;2024-03-17T02:13:33;9.38;;;4.63;;
39032;SDS011;24794;51.982;5.878;2024-03-17T02:14:34;8.30;;;5.10;;
39032;SDS011;24794;51.982;5.878;2024-03-17T02:15:34;8.93;;;4.95;;
39032;SDS011;24794;51.982;5.878;2024-03-17T02:16:35;8.95;;;4.75;;
39032;SDS011;24794;51.982;5.878;2024-03-17T02:17:35;10.55;;;5.47;;
39032;SDS011;24794;51.982;5.878;2024-03-17T02:18:36;8.13;;;5.15;;
39032;SDS011;24794;51.982;5.878;2024-03-17T02:19:36;7.95;;;4.90;;
39032;SDS011;24794;51.982;5.878;2024-03-17T02:20:37;10.90;;;5.15;;
39032;SDS011;24794;51.982;5.878;2024-03-17T02:21:58;8.85;;;5.45;;
39032;SDS011;24794;51.982;5.878;2024-03-17T02:22:59;9.35;;;5.20;;
39032;SDS011;24794;51.982;5.878;2024-03-17T02:23:59;10.93;;;5.55;;
39032;SDS011;24794;51.982;5.878;2024-03-17T02:25:00;12.35;;;5.53;;
39032;SDS011;24794;51.982;5.878;2024-03-17T02:26:02;8.00;;;4.63;;
39032;SDS011;24794;51.982;5.878;2024-03-17T02:27:03;10.70;;;5.47;;
39032;SDS011;24794;51.982;5.878;2024-03-17T02:28:04;7.78;;;4.53;;
39032;SDS011;24794;51.982;5.878;2024-03-17T02:29:04;8.68;;;5.30;;
39032;SDS011;24794;51.982;5.878;2024-03-17T02:30:05;9.00;;;4.88;;
39032;SDS011;24794;51.982;5.878;2024-03-17T02:31:09;8.20;;;4.68;;
39032;SDS011;24794;51.982;5.878;2024-03-17T02:32:14;11.48;;;5.15;;
39032;SDS011;24794;51.982;5.878;2024-03-17T02:33:15;12.18;;;4.85;;
39032;SDS011;24794;51.982;5.878;2024-03-17T02:34:16;8.85;;;5.45;;
39032;SDS011;24794;51.982;5.878;2024-03-17T02:35:16;9.60;;;4.90;;
39032;SDS011;24794;51.982;5.878;2024-03-17T02:36:17;9.30;;;5.10;;
39032;SDS011;24794;51.982;5.878;2024-03-17T02:37:17;9.20;;;4.82;;
39032;SDS011;24794;51.982;5.878;2024-03-17T02:38:18;11.88;;;5.07;;
39032;SDS011;24794;51.982;5.878;2024-03-17T02:39:38;9.52;;;4.75;;
39032;SDS011;24794;51.982;5.878;2024-03-17T02:40:39;8.25;;;5.05;;
39032;SDS011;24794;51.982;5.878;2024-03-17T02:41:43;8.77;;;4.88;;
39032;SDS011;24794;51.982;5.878;2024-03-17T02:42:44;12.40;;;4.90;;
39032;SDS011;24794;51.982;5.878;2024-03-17T02:43:45;8.05;;;4.82;;
39032;SDS011;24794;51.982;5.878;2024-03-17T02:44:46;10.93;;;5.25;;
39032;SDS011;24794;51.982;5.878;2024-03-17T02:45:47;9.05;;;4.97;;
39032;SDS011;24794;51.982;5.878;2024-03-17T02:46:47;9.23;;;4.95;;
39032;SDS011;24794;51.982;5.878;2024-03-17T02:47:48;7.95;;;4.60;;
39032;SDS011;24794;51.982;5.878;2024-03-17T02:48:51;11.77;;;5.70;;
39032;SDS011;24794;51.982;5.878;2024-03-17T02:49:52;10.25;;;5.25;;
39032;SDS011;24794;51.982;5.878;2024-03-17T02:50:53;7.28;;;4.90;;
39032;SDS011;24794;51.982;5.878;2024-03-17T02:51:54;9.40;;;5.00;;
39032;SDS011;24794;51.982;5.878;2024-03-17T02:52:54;14.02;;;5.03;;
39032;SDS011;24794;51.982;5.878;2024-03-17T02:53:55;9.88;;;4.82;;
39032;SDS011;24794;51.982;5.878;2024-03-17T02:54:55;8.75;;;5.20;;
39032;SDS011;24794;51.982;5.878;2024-03-17T02:55:56;10.38;;;4.95;;
39032;SDS011;24794;51.982;5.878;2024-03-17T02:56:57;7.80;;;5.00;;
39032;SDS011;24794;51.982;5.878;2024-03-17T02:57:58;9.00;;;4.80;;
39032;SDS011;24794;51.982;5.878;2024-03-17T02:58:58;10.30;;;5.10;;
39032;SDS011;24794;51.982;5.878;2024-03-17T02:59:59;9.85;;;5.28;;
39032;SDS011;24794;51.982;5.878;2024-03-17T03:00:59;12.07;;;5.25;;
39032;SDS011;24794;51.982;5.878;2024-03-17T03:02:00;10.75;;;4.78;;
39032;SDS011;24794;51.982;5.878;2024-03-17T03:03:00;8.65;;;4.57;;
39032;SDS011;24794;51.982;5.878;2024-03-17T03:04:01;9.98;;;4.97;;
39032;SDS011;24794;51.982;5.878;2024-03-17T03:05:02;10.80;;;5.25;;
39032;SDS011;24794;51.982;5.878;2024-03-17T03:06:02;10.85;;;4.90;;
39032;SDS011;24794;51.982;5.878;2024-03-17T03:07:09;7.95;;;4.53;;
39032;SDS011;24794;51.982;5.878;2024-03-17T03:08:10;9.90;;;4.82;;
39032;SDS011;24794;51.982;5.878;2024-03-17T03:09:10;12.15;;;4.80;;
39032;SDS011;24794;51.982;5.878;2024-03-17T03:10:14;10.20;;;5.10;;
39032;SDS011;24794;51.982;5.878;2024-03-17T03:11:16;8.43;;;4.60;;
39032;SDS011;24794;51.982;5.878;2024-03-17T03:12:17;11.85;;;4.82;;
39032;SDS011;24794;51.982;5.878;2024-03-17T03:13:17;12.88;;;4.93;;
39032;SDS011;24794;51.982;5.878;2024-03-17T03:14:19;9.15;;;4.95;;
39032;SDS011;24794;51.982;5.878;2024-03-17T03:15:20;9.20;;;4.95;;
39032;SDS011;24794;51.982;5.878;2024-03-17T03:16:21;9.90;;;5.07;;
39032;SDS011;24794;51.982;5.878;2024-03-17T03:17:21;11.30;;;5.20;;
39032;SDS011;24794;51.982;5.878;2024-03-17T03:18:22;9.35;;;5.10;;
39032;SDS011;24794;51.982;5.878;2024-03-17T03:19:23;9.60;;;5.28;;
39032;SDS011;24794;51.982;5.878;2024-03-17T03:20:25;9.77;;;4.90;;
39032;SDS011;24794;51.982;5.878;2024-03-17T03:21:25;7.43;;;4.63;;
39032;SDS011;24794;51.982;5.878;2024-03-17T03:22:26;9.45;;;4.70;;
39032;SDS011;24794;51.982;5.878;2024-03-17T03:23:27;10.23;;;5.63;;
39032;SDS011;24794;51.982;5.878;2024-03-17T03:24:27;9.05;;;4.93;;
39032;SDS011;24794;51.982;5.878;2024-03-17T03:25:28;9.90;;;5.35;;
39032;SDS011;24794;51.982;5.878;2024-03-17T03:26:28;12.18;;;5.10;;
39032;SDS011;24794;51.982;5.878;2024-03-17T03:27:29;7.72;;;4.60;;
39032;SDS011;24794;51.982;5.878;2024-03-17T03:28:30;9.27;;;4.78;;
39032;SDS011;24794;51.982;5.878;2024-03-17T03:29:32;8.40;;;4.78;;
39032;SDS011;24794;51.982;5.878;2024-03-17T03:30:35;8.60;;;4.45;;
39032;SDS011;24794;51.982;5.878;2024-03-17T03:31:36;9.70;;;5.00;;
39032;SDS011;24794;51.982;5.878;2024-03-17T03:32:40;8.68;;;5.10;;
39032;SDS011;24794;51.982;5.878;2024-03-17T03:33:41;9.63;;;5.05;;
39032;SDS011;24794;51.982;5.878;2024-03-17T03:34:42;9.88;;;4.90;;
39032;SDS011;24794;51.982;5.878;2024-03-17T03:35:43;7.28;;;4.90;;
39032;SDS011;24794;51.982;5.878;2024-03-17T03:36:44;8.45;;;5.00;;
39032;SDS011;24794;51.982;5.878;2024-03-17T03:37:45;9.35;;;5.13;;
39032;SDS011;24794;51.982;5.878;2024-03-17T03:38:46;7.35;;;4.55;;
39032;SDS011;24794;51.982;5.878;2024-03-17T03:39:47;10.25;;;5.32;;
39032;SDS011;24794;51.982;5.878;2024-03-17T03:40:49;8.57;;;4.88;;
39032;SDS011;24794;51.982;5.878;2024-03-17T03:41:49;9.10;;;5.07;;
39032;SDS011;24794;51.982;5.878;2024-03-17T03:42:50;9.73;;;5.72;;
39032;SDS011;24794;51.982;5.878;2024-03-17T03:43:50;7.32;;;4.57;;
39032;SDS011;24794;51.982;5.878;2024-03-17T03:44:51;9.98;;;5.05;;
39032;SDS011;24794;51.982;5.878;2024-03-17T03:45:51;7.97;;;4.93;;
39032;SDS011;24794;51.982;5.878;2024-03-17T03:46:52;8.43;;;4.93;;
39032;SDS011;24794;51.982;5.878;2024-03-17T03:47:56;10.13;;;5.05;;
39032;SDS011;24794;51.982;5.878;2024-03-17T03:48:57;7.68;;;4.90;;
39032;SDS011;24794;51.982;5.878;2024-03-17T03:49:58;7.90;;;5.13;;
39032;SDS011;24794;51.982;5.878;2024-03-17T03:50:58;9.35;;;5.07;;
39032;SDS011;24794;51.982;5.878;2024-03-17T03:51:59;7.72;;;4.65;;
39032;SDS011;24794;51.982;5.878;2024-03-17T03:52:59;10.70;;;5.30;;
39032;SDS011;24794;51.982;5.878;2024-03-17T03:54:00;7.93;;;4.85;;
39032;SDS011;24794;51.982;5.878;2024-03-17T03:55:02;9.38;;;4.88;;
39032;SDS011;24794;51.982;5.878;2024-03-17T03:56:04;10.75;;;5.13;;
39032;SDS011;24794;51.982;5.878;2024-03-17T03:57:06;9.63;;;4.90;;
39032;SDS011;24794;51.982;5.878;2024-03-17T03:58:06;8.25;;;5.32;;
39032;SDS011;24794;51.982;5.878;2024-03-17T03:59:07;8.55;;;5.07;;
39032;SDS011;24794;51.982;5.878;2024-03-17T04:00:08;8.25;;;5.15;;
39032;SDS011;24794;51.982;5.878;2024-03-17T04:01:14;11.80;;;5.68;;
39032;SDS011;24794;51.982;5.878;2024-03-17T04:02:21;7.00;;;4.70;;
39032;SDS011;24794;51.982;5.878;2024-03-17T04:03:22;8.32;;;5.20;;
39032;SDS011;24794;51.982;5.878;2024-03-17T04:04:22;8.00;;;5.05;;
39032;SDS011;24794;51.982;5.878;2024-03-17T04:05:23;7.20;;;4.90;;
39032;SDS011;24794;51.982;5.878;2024-03-17T04:06:23;8.95;;;4.90;;
39032;SDS011;24794;51.982;5.878;2024-03-17T04:07:24;9.30;;;5.40;;
39032;SDS011;24794;51.982;5.878;2024-03-17T04:08:25;8.70;;;5.30;;
39032;SDS011;24794;51.982;5.878;2024-03-17T04:09:25;8.75;;;5.05;;
39032;SDS011;24794;51.982;5.878;2024-03-17T04:10:26;8.85;;;5.20;;
39032;SDS011;24794;51.982;5.878;2024-03-17T04:11:26;14.30;;;5.75;;
39032;SDS011;24794;51.982;5.878;2024-03-17T04:12:27;8.27;;;5.40;;
39032;SDS011;24794;51.982;5.878;2024-03-17T04:13:28;8.38;;;5.15;;
39032;SDS011;24794;51.982;5.878;2024-03-17T04:14:29;10.65;;;5.47;;
39032;SDS011;24794;51.982;5.878;2024-03-17T04:15:30;8.93;;;5.28;;
39032;SDS011;24794;51.982;5.878;2024-03-17T04:16:31;11.02;;;5.60;;
39032;SDS011;24794;51.982;5.878;2024-03-17T04:17:31;9.80;;;5.43;;
39032;SDS011;24794;51.982;5.878;2024-03-17T04:18:33;8.85;;;5.82;;
39032;SDS011;24794;51.982;5.878;2024-03-17T04:19:34;11.15;;;5.88;;
39032;SDS011;24794;51.982;5.878;2024-03-17T04:20:35;10.43;;;5.53;;
39032;SDS011;24794;51.982;5.878;2024-03-17T04:21:36;8.10;;;5.60;;
39032;SDS011;24794;51.982;5.878;2024-03-17T04:22:37;11.57;;;5.88;;
39032;SDS011;24794;51.982;5.878;2024-03-17T04:23:37;9.38;;;5.72;;
39032;SDS011;24794;51.982;5.878;2024-03-17T04:24:38;9.93;;;5.70;;
39032;SDS011;24794;51.982;5.878;2024-03-17T04:25:39;9.60;;;5.38;;
39032;SDS011;24794;51.982;5.878;2024-03-17T04:26:39;10.20;;;6.00;;
39032;SDS011;24794;51.982;5.878;2024-03-17T04:27:40;8.55;;;5.10;;
39032;SDS011;24794;51.982;5.878;2024-03-17T04:28:41;7.97;;;5.47;;
39032;SDS011;24794;51.982;5.878;2024-03-17T04:29:41;10.88;;;6.63;;
39032;SDS011;24794;51.982;5.878;2024-03-17T04:30:42;9.55;;;5.95;;
39032;SDS011;24794;51.982;5.878;2024-03-17T04:31:43;10.13;;;6.05;;
39032;SDS011;24794;51.982;5.878;2024-03-17T04:32:48;7.15;;;5.53;;
39032;SDS011;24794;51.982;5.878;2024-03-17T04:33:50;9.00;;;5.45;;
39032;SDS011;24794;51.982;5.878;2024-03-17T04:34:51;9.95;;;5.93;;
39032;SDS011;24794;51.982;5.878;2024-03-17T04:35:51;10.43;;;5.93;;
39032;SDS011;24794;51.982;5.878;2024-03-17T04:36:52;11.55;;;5.97;;
39032;SDS011;24794;51.982;5.878;2024-03-17T04:37:53;8.98;;;5.75;;
39032;SDS011;24794;51.982;5.878;2024-03-17T04:38:54;8.38;;;5.60;;
39032;SDS011;24794;51.982;5.878;2024-03-17T04:39:54;12.52;;;6.70;;
39032;SDS011;24794;51.982;5.878;2024-03-17T04:40:57;10.98;;;6.05;;
39032;SDS011;24794;51.982;5.878;2024-03-17T04:42:05;9.93;;;5.72;;
39032;SDS011;24794;51.982;5.878;2024-03-17T04:43:07;10.25;;;6.18;;
39032;SDS011;24794;51.982;5.878;2024-03-17T04:44:08;9.57;;;6.32;;
39032;SDS011;24794;51.982;5.878;2024-03-17T04:45:09;9.80;;;6.28;;
39032;SDS011;24794;51.982;5.878;2024-03-17T04:46:10;9.02;;;5.70;;
39032;SDS011;24794;51.982;5.878;2024-03-17T04:47:11;14.80;;;6.75;;
39032;SDS011;24794;51.982;5.878;2024-03-17T04:48:12;14.20;;;7.32;;
39032;SDS011;24794;51.982;5.878;2024-03-17T04:49:13;11.15;;;6.50;;
39032;SDS011;24794;51.982;5.878;2024-03-17T04:50:13;9.85;;;6.47;;
39032;SDS011;24794;51.982;5.878;2024-03-17T04:51:17;9.20;;;6.10;;
39032;SDS011;24794;51.982;5.878;2024-03-17T04:52:17;9.18;;;6.07;;
39032;SDS011;24794;51.982;5.878;2024-03-17T04:53:18;9.60;;;5.90;;
39032;SDS011;24794;51.982;5.878;2024-03-17T04:54:19;9.35;;;6.22;;
39032;SDS011;24794;51.982;5.878;2024-03-17T04:55:19;10.77;;;6.20;;
39032;SDS011;24794;51.982;5.878;2024-03-17T04:56:20;11.75;;;6.90;;
39032;SDS011;24794;51.982;5.878;2024-03-17T04:57:20;9.43;;;6.63;;
39032;SDS011;24794;51.982;5.878;2024-03-17T04:58:21;10.20;;;6.70;;
39032;SDS011;24794;51.982;5.878;2024-03-17T04:59:21;9.60;;;6.07;;
39032;SDS011;24794;51.982;5.878;2024-03-17T05:00:22;11.98;;;6.85;;
39032;SDS011;24794;51.982;5.878;2024-03-17T05:01:22;9.25;;;6.70;;
39032;SDS011;24794;51.982;5.878;2024-03-17T05:02:24;9.43;;;6.72;;
39032;SDS011;24794;51.982;5.878;2024-03-17T05:03:25;10.63;;;6.28;;
39032;SDS011;24794;51.982;5.878;2024-03-17T05:04:25;13.45;;;6.10;;
39032;SDS011;24794;51.982;5.878;2024-03-17T05:05:26;11.45;;;7.00;;
39032;SDS011;24794;51.982;5.878;2024-03-17T05:06:26;11.68;;;6.70;;
39032;SDS011;24794;51.982;5.878;2024-03-17T05:07:27;10.27;;;6.55;;
39032;SDS011;24794;51.982;5.878;2024-03-17T05:08:28;9.75;;;6.45;;
39032;SDS011;24794;51.982;5.878;2024-03-17T05:09:29;11.77;;;7.22;;
39032;SDS011;24794;51.982;5.878;2024-03-17T05:10:30;12.57;;;7.00;;
39032;SDS011;24794;51.982;5.878;2024-03-17T05:11:30;12.40;;;7.03;;
39032;SDS011;24794;51.982;5.878;2024-03-17T05:12:31;9.07;;;6.38;;
39032;SDS011;24794;51.982;5.878;2024-03-17T05:13:32;11.63;;;6.68;;
39032;SDS011;24794;51.982;5.878;2024-03-17T05:14:33;11.23;;;6.40;;
39032;SDS011;24794;51.982;5.878;2024-03-17T05:15:36;11.30;;;6.50;;
39032;SDS011;24794;51.982;5.878;2024-03-17T05:16:37;10.55;;;6.50;;
39032;SDS011;24794;51.982;5.878;2024-03-17T05:17:38;10.27;;;6.72;;
39032;SDS011;24794;51.982;5.878;2024-03-17T05:18:38;11.82;;;6.55;;
39032;SDS011;24794;51.982;5.878;2024-03-17T05:19:39;10.93;;;6.47;;
39032;SDS011;24794;51.982;5.878;2024-03-17T05:20:40;11.95;;;6.65;;
39032;SDS011;24794;51.982;5.878;2024-03-17T05:21:41;10.77;;;7.30;;
39032;SDS011;24794;51.982;5.878;2024-03-17T05:22:41;9.40;;;6.72;;
39032;SDS011;24794;51.982;5.878;2024-03-17T05:23:42;10.68;;;6.85;;
39032;SDS011;24794;51.982;5.878;2024-03-17T05:24:43;11.93;;;7.03;;
39032;SDS011;24794;51.982;5.878;2024-03-17T05:25:50;13.98;;;6.72;;
39032;SDS011;24794;51.982;5.878;2024-03-17T05:26:52;11.05;;;6.80;;
39032;SDS011;24794;51.982;5.878;2024-03-17T05:27:52;10.38;;;6.53;;
39032;SDS011;24794;51.982;5.878;2024-03-17T05:28:53;8.40;;;6.55;;
39032;SDS011;24794;51.982;5.878;2024-03-17T05:29:54;10.88;;;6.57;;
39032;SDS011;24794;51.982;5.878;2024-03-17T05:30:54;12.02;;;7.30;;
39032;SDS011;24794;51.982;5.878;2024-03-17T05:31:56;11.45;;;7.22;;
39032;SDS011;24794;51.982;5.878;2024-03-17T05:32:57;10.70;;;7.13;;
39032;SDS011;24794;51.982;5.878;2024-03-17T05:33:58;11.98;;;7.53;;
39032;SDS011;24794;51.982;5.878;2024-03-17T05:34:58;11.30;;;7.20;;
39032;SDS011;24794;51.982;5.878;2024-03-17T05:35:59;10.32;;;6.93;;
39032;SDS011;24794;51.982;5.878;2024-03-17T05:37:02;14.98;;;7.28;;
39032;SDS011;24794;51.982;5.878;2024-03-17T05:38:03;12.50;;;7.03;;
39032;SDS011;24794;51.982;5.878;2024-03-17T05:39:04;10.57;;;6.72;;
39032;SDS011;24794;51.982;5.878;2024-03-17T05:40:05;13.52;;;8.25;;
39032;SDS011;24794;51.982;5.878;2024-03-17T05:41:07;10.75;;;7.18;;
39032;SDS011;24794;51.982;5.878;2024-03-17T05:42:09;11.43;;;6.85;;
39032;SDS011;24794;51.982;5.878;2024-03-17T05:43:09;14.90;;;7.18;;
39032;SDS011;24794;51.982;5.878;2024-03-17T05:44:10;12.50;;;7.07;;
39032;SDS011;24794;51.982;5.878;2024-03-17T05:45:11;12.63;;;7.82;;
39032;SDS011;24794;51.982;5.878;2024-03-17T05:46:11;10.38;;;6.68;;
39032;SDS011;24794;51.982;5.878;2024-03-17T05:47:13;12.68;;;7.72;;
39032;SDS011;24794;51.982;5.878;2024-03-17T05:48:13;11.45;;;7.53;;
39032;SDS011;24794;51.982;5.878;2024-03-17T05:49:14;15.27;;;7.80;;
39032;SDS011;24794;51.982;5.878;2024-03-17T05:50:14;13.57;;;7.60;;
39032;SDS011;24794;51.982;5.878;2024-03-17T05:51:15;10.45;;;7.13;;
39032;SDS011;24794;51.982;5.878;2024-03-17T05:52:16;11.05;;;7.07;;
39032;SDS011;24794;51.982;5.878;2024-03-17T05:53:17;9.98;;;6.85;;
39032;SDS011;24794;51.982;5.878;2024-03-17T05:54:20;10.80;;;7.47;;
39032;SDS011;24794;51.982;5.878;2024-03-17T05:55:21;10.35;;;6.80;;
39032;SDS011;24794;51.982;5.878;2024-03-17T05:56:22;10.82;;;6.80;;
39032;SDS011;24794;51.982;5.878;2024-03-17T05:57:22;12.20;;;7.40;;
39032;SDS011;24794;51.982;5.878;2024-03-17T05:58:24;11.15;;;7.00;;
39032;SDS011;24794;51.982;5.878;2024-03-17T05:59:24;11.18;;;6.88;;
39032;SDS011;24794;51.982;5.878;2024-03-17T06:00:25;12.63;;;8.05;;
39032;SDS011;24794;51.982;5.878;2024-03-17T06:01:25;12.38;;;7.28;;
39032;SDS011;24794;51.982;5.878;2024-03-17T06:02:26;10.07;;;7.40;;
39032;SDS011;24794;51.982;5.878;2024-03-17T06:03:26;10.13;;;7.03;;
39032;SDS011;24794;51.982;5.878;2024-03-17T06:04:27;11.43;;;7.68;;
39032;SDS011;24794;51.982;5.878;2024-03-17T06:05:31;12.50;;;7.75;;